Главная страница
METAR-TAF:

METAR-TAF

Аэропорты :

Aklavik, Северо-Западные Территории, Канада

широта: 68-13N, долгота: 135-00W, высота над уровнем моря: 7 м

Текущие метеонаблюдения

Эта сводка был подготовлена 4 часа и 24 минут назад, в 23:00 UTC
Ветер 12 Узел от северно-северо-западный с порывами до 22 Узел
Температура 0°C
Влажность 74%
Давление 1013 hPa
Видимость: 16.1 км
Отдельные облака на высоте 1500 фута
Рассеянная облачность на высоте 2300 фута

METAR: CYKD 262300Z 34012G22KT 10SM SCT015 BKN023 00/M04 A2990 RMK ST4SC3 1.2/SNWCVR ONE LOOSE LAST STFD OBS/NEXT 271400Z SLP126

Время: 21:24 (03:24 UTC)


TAF: отсутствует

Метеонаблюдения и прогнозы для более 4000 аэропортов (сводки METAR и TAF).

Имеющиеся станции представлены на карте желтыми и красными точками.

Чтобы увидеть название станции, наведите на нее мышь.

Затем щелкните, чтобы увидеть метеонаблюдения и метеопрогнозы.

Управление картой: чтобы увеличить масштаб, щелкните зеленые кнопки с черным крестиком; чтобы уменьшить масштаб, щелкните зеленую кнопку с тире; для просмотра соседних карт щелкайте зеленые стрелки.


METAR-TAF: